首页
METAR-TAF:

METAR-TAF

机场 :

卢森堡-芬德尔国际机场

卢森堡, 卢森堡

纬度: 49-37N, 经度: 006-13E, 海拔: 376米

当前天气观测

该预报发布于1小时和9分钟前的17:20 UTC
风速9节,风向西南
温度 5°C
湿度 70%
气压 1028 hPa
能见度10公里或以上
少量云层高于3000英尺

METAR: ELLX 211720Z 23009KT 9999 FEW030 05/00 Q1028 NOSIG

时间: 19:29 (18:29 UTC)

预报

该预报发布于1小时和29分钟前的17:00 UTC
预报有效从21日的 18点(UTC)到 22日的 24点(UTC)
风速10节,风向西南
能见度10公里或以上
少量云层高于3000英尺
成为
从 22日的 08点(UTC)到 22日的 10点(UTC)
风速15节,风向西南,有时为25节阵风
成为
从 22日的 18点(UTC)到 22日的 21点(UTC)
多云层高于1200英尺

TAF: ELLX 211700Z 2118/2224 22010KT 9999 FEW030 BECMG 2208/2210 23015G25KT BECMG 2218/2221 BKN012

超过4000个机场的气象观测和天气预报(METAR&TAF报告)。

可查询的气象台以黄色和红色小点在地图上表示。

将鼠标移到小点上方,可查看气象台名称。

然后点击查看天气观测和预报。

如需切换地图:点击带黑十字的绿色按钮放大地图;点击带横线的绿色按钮缩小地图;或者点击绿色箭头查看邻近地区的地图。


METAR-TAF: